Labolt, SD (57246)

9:45 PM CDT on September 01, 2015 (GMT -0500)
APRSWXNET | | Change Station
CLOSE
Current Station
Personal Weather Station
Location: Clear Lake, SD
Elevation: 1819 ft
Nearby Weather Stations

Elev 1819 ft 44.76 °N, 96.69 °W | Updated 19 minutes ago

Partly Cloudy
Partly Cloudy
71 °F
Feels Like 74 °F
N
2
Wind Variable Wind from SSE
Gusts 6.0 mph

Today
High -- | Low -- °F
--% Chance of Precip.
Yesterday
High -- | Low -- °F
Precip. -- in
6:48 AM 8:04 PM
Waning Gibbous, 84% visible
Pressure 29.85 in
Visibility 10.0 miles
Clouds Clear
Heat Index 74 °F
Dew Point 61 °F
Humidity 71%
Rainfall in
Snow Depth Not available.
UV 0 out of 12
Pollen 10.30 out of 12
Air Quality Not available.
Flu Activity Not available.
METAR KATY 020153Z AUTO 16008KT 10SM CLR 23/19 A2987 RMK AO2 SLP106 T02280189
Pressure 29.85 in
Visibility 10.0 miles
Clouds Clear
Heat Index 74 °F
Dew Point 61 °F
Humidity 71%
Rainfall in
Snow Depth Not available.
UV 0 out of 12
Pollen 10.30 out of 12
Air Quality Not available.
Flu Activity Not available.
METAR KATY 020153Z AUTO 16008KT 10SM CLR 23/19 A2987 RMK AO2 SLP106 T02280189

10-Day Weather Forecast

×

Almanac

Astronomy

Sep. 01, 2015 Rise Set
Actual Time
Civil Twilight
Nautical Twilight
Astronomical Twilight
Moon
Length of Visible Light
Length of Day
Tomorrow will be .
, % of the Moon is Illuminated

Today's Extremes

State Highs State Lows

Community

WunderPhotos

Upload Photos

1,851,682 photos uploaded!

WunderBlogs® & News

Nearby

Air Quality

  Air Quality AQ Index Pollutant
Not available.

Snow Depth

Station Depth Elevation

Earthquake Activity

City Distance Mag. Time & Date
Minimum magnitude displayed is 2.5.

Coastal Water Temperatures

Place Temperature

Stations

Nearby Weather Stations

Station Location Temp. Windchill Dew Point Humidity Wind Precip. Elev Updated Type